sensor_id;sensor_type;location;lat;lon;timestamp;P1;durP1;ratioP1;P2;durP2;ratioP2
71176;SDS011;58877;51.992;4.504;2022-09-25T00:00:23;1.87;;;1.76;;
71176;SDS011;58877;51.992;4.504;2022-09-25T00:02:49;1.98;;;1.85;;
71176;SDS011;58877;51.992;4.504;2022-09-25T00:05:15;2.21;;;2.06;;
71176;SDS011;58877;51.992;4.504;2022-09-25T00:07:40;2.11;;;1.98;;
71176;SDS011;58877;51.992;4.504;2022-09-25T00:10:09;2.13;;;2.01;;
71176;SDS011;58877;51.992;4.504;2022-09-25T00:12:37;2.41;;;2.25;;
71176;SDS011;58877;51.992;4.504;2022-09-25T00:15:03;2.42;;;2.25;;
71176;SDS011;58877;51.992;4.504;2022-09-25T00:17:29;2.28;;;2.12;;
71176;SDS011;58877;51.992;4.504;2022-09-25T00:19:55;2.23;;;2.07;;
71176;SDS011;58877;51.992;4.504;2022-09-25T00:22:21;2.28;;;2.12;;
71176;SDS011;58877;51.992;4.504;2022-09-25T00:24:52;2.19;;;2.04;;
71176;SDS011;58877;51.992;4.504;2022-09-25T00:27:17;2.00;;;1.87;;
71176;SDS011;58877;51.992;4.504;2022-09-25T00:29:43;2.28;;;2.14;;
71176;SDS011;58877;51.992;4.504;2022-09-25T00:32:09;2.16;;;2.01;;
71176;SDS011;58877;51.992;4.504;2022-09-25T00:34:36;2.37;;;2.18;;
71176;SDS011;58877;51.992;4.504;2022-09-25T00:37:03;2.31;;;2.16;;
71176;SDS011;58877;51.992;4.504;2022-09-25T00:39:30;2.14;;;2.05;;
71176;SDS011;58877;51.992;4.504;2022-09-25T00:41:56;2.25;;;2.16;;
71176;SDS011;58877;51.992;4.504;2022-09-25T00:44:43;2.02;;;1.94;;
71176;SDS011;58877;51.992;4.504;2022-09-25T00:47:25;2.00;;;1.94;;
71176;SDS011;58877;51.992;4.504;2022-09-25T00:52:55;2.06;;;1.95;;
71176;SDS011;58877;51.992;4.504;2022-09-25T00:55:31;1.94;;;1.87;;
71176;SDS011;58877;51.992;4.504;2022-09-25T00:57:59;1.90;;;1.85;;
71176;SDS011;58877;51.992;4.504;2022-09-25T01:00:28;1.84;;;1.79;;
71176;SDS011;58877;51.992;4.504;2022-09-25T01:02:54;2.01;;;1.96;;
71176;SDS011;58877;51.992;4.504;2022-09-25T01:05:24;1.80;;;1.78;;
71176;SDS011;58877;51.992;4.504;2022-09-25T01:07:53;1.73;;;1.73;;
71176;SDS011;58877;51.992;4.504;2022-09-25T01:10:23;2.01;;;2.01;;
71176;SDS011;58877;51.992;4.504;2022-09-25T01:12:49;2.13;;;2.13;;
71176;SDS011;58877;51.992;4.504;2022-09-25T01:15:18;2.17;;;2.17;;
71176;SDS011;58877;51.992;4.504;2022-09-25T01:26:30;2.24;;;2.21;;
71176;SDS011;58877;51.992;4.504;2022-09-25T01:29:19;2.25;;;2.22;;
71176;SDS011;58877;51.992;4.504;2022-09-25T01:32:03;2.34;;;2.32;;
71176;SDS011;58877;51.992;4.504;2022-09-25T01:34:46;2.37;;;2.35;;
71176;SDS011;58877;51.992;4.504;2022-09-25T01:40:26;2.43;;;2.42;;
71176;SDS011;58877;51.992;4.504;2022-09-25T01:43:06;2.37;;;2.35;;
71176;SDS011;58877;51.992;4.504;2022-09-25T01:45:59;2.36;;;2.35;;
71176;SDS011;58877;51.992;4.504;2022-09-25T01:48:33;2.36;;;2.35;;
71176;SDS011;58877;51.992;4.504;2022-09-25T01:51:10;2.66;;;2.66;;
71176;SDS011;58877;51.992;4.504;2022-09-25T01:53:47;2.61;;;2.59;;
71176;SDS011;58877;51.992;4.504;2022-09-25T01:56:31;2.45;;;2.41;;
71176;SDS011;58877;51.992;4.504;2022-09-25T01:59:05;2.14;;;2.09;;
71176;SDS011;58877;51.992;4.504;2022-09-25T02:01:36;2.38;;;2.33;;
71176;SDS011;58877;51.992;4.504;2022-09-25T02:04:13;2.17;;;2.14;;
71176;SDS011;58877;51.992;4.504;2022-09-25T02:07:09;2.28;;;2.22;;
71176;SDS011;58877;51.992;4.504;2022-09-25T02:09:50;2.05;;;2.00;;
71176;SDS011;58877;51.992;4.504;2022-09-25T02:12:33;2.09;;;2.06;;
71176;SDS011;58877;51.992;4.504;2022-09-25T02:15:12;2.01;;;1.98;;
71176;SDS011;58877;51.992;4.504;2022-09-25T02:18:02;2.00;;;1.98;;
71176;SDS011;58877;51.992;4.504;2022-09-25T02:21:01;2.21;;;2.18;;
71176;SDS011;58877;51.992;4.504;2022-09-25T02:26:38;2.34;;;2.31;;
71176;SDS011;58877;51.992;4.504;2022-09-25T02:29:04;2.31;;;2.29;;
71176;SDS011;58877;51.992;4.504;2022-09-25T02:31:35;2.35;;;2.34;;
71176;SDS011;58877;51.992;4.504;2022-09-25T02:34:04;2.26;;;2.24;;
71176;SDS011;58877;51.992;4.504;2022-09-25T02:36:31;2.14;;;2.12;;
71176;SDS011;58877;51.992;4.504;2022-09-25T02:38:58;2.23;;;2.21;;
71176;SDS011;58877;51.992;4.504;2022-09-25T02:41:45;2.46;;;2.43;;
71176;SDS011;58877;51.992;4.504;2022-09-25T02:44:42;2.12;;;2.09;;
71176;SDS011;58877;51.992;4.504;2022-09-25T02:47:33;2.36;;;2.34;;
71176;SDS011;58877;51.992;4.504;2022-09-25T02:53:10;1.93;;;1.93;;
71176;SDS011;58877;51.992;4.504;2022-09-25T02:58:13;2.03;;;2.01;;
71176;SDS011;58877;51.992;4.504;2022-09-25T03:00:51;2.13;;;2.11;;
71176;SDS011;58877;51.992;4.504;2022-09-25T03:03:21;2.16;;;2.13;;
71176;SDS011;58877;51.992;4.504;2022-09-25T03:05:50;2.20;;;2.18;;
71176;SDS011;58877;51.992;4.504;2022-09-25T03:08:20;2.03;;;2.02;;
71176;SDS011;58877;51.992;4.504;2022-09-25T03:11:05;2.04;;;2.01;;
71176;SDS011;58877;51.992;4.504;2022-09-25T03:13:44;1.95;;;1.95;;
71176;SDS011;58877;51.992;4.504;2022-09-25T03:16:11;2.19;;;2.17;;
71176;SDS011;58877;51.992;4.504;2022-09-25T03:18:43;2.26;;;2.23;;
71176;SDS011;58877;51.992;4.504;2022-09-25T03:21:10;2.13;;;2.10;;
71176;SDS011;58877;51.992;4.504;2022-09-25T03:23:36;2.02;;;1.98;;
71176;SDS011;58877;51.992;4.504;2022-09-25T03:26:01;1.99;;;1.95;;
71176;SDS011;58877;51.992;4.504;2022-09-25T03:28:28;2.02;;;2.00;;
71176;SDS011;58877;51.992;4.504;2022-09-25T03:30:55;1.96;;;1.94;;
71176;SDS011;58877;51.992;4.504;2022-09-25T03:33:23;1.80;;;1.78;;
71176;SDS011;58877;51.992;4.504;2022-09-25T03:35:52;1.64;;;1.62;;
71176;SDS011;58877;51.992;4.504;2022-09-25T03:38:28;1.82;;;1.79;;
71176;SDS011;58877;51.992;4.504;2022-09-25T03:40:54;1.58;;;1.54;;
71176;SDS011;58877;51.992;4.504;2022-09-25T03:43:19;1.72;;;1.68;;
71176;SDS011;58877;51.992;4.504;2022-09-25T03:45:45;1.90;;;1.84;;
71176;SDS011;58877;51.992;4.504;2022-09-25T03:48:10;1.92;;;1.86;;
71176;SDS011;58877;51.992;4.504;2022-09-25T03:50:36;1.92;;;1.85;;
71176;SDS011;58877;51.992;4.504;2022-09-25T03:53:03;1.88;;;1.81;;
71176;SDS011;58877;51.992;4.504;2022-09-25T03:55:29;1.56;;;1.50;;
71176;SDS011;58877;51.992;4.504;2022-09-25T03:57:55;1.81;;;1.75;;
71176;SDS011;58877;51.992;4.504;2022-09-25T04:00:20;1.96;;;1.88;;
71176;SDS011;58877;51.992;4.504;2022-09-25T04:02:48;1.79;;;1.73;;
71176;SDS011;58877;51.992;4.504;2022-09-25T04:05:14;1.71;;;1.64;;
71176;SDS011;58877;51.992;4.504;2022-09-25T04:07:40;1.84;;;1.76;;
71176;SDS011;58877;51.992;4.504;2022-09-25T04:10:12;1.73;;;1.64;;
71176;SDS011;58877;51.992;4.504;2022-09-25T04:12:39;1.53;;;1.45;;
71176;SDS011;58877;51.992;4.504;2022-09-25T04:15:07;1.76;;;1.67;;
71176;SDS011;58877;51.992;4.504;2022-09-25T04:17:34;1.48;;;1.40;;
71176;SDS011;58877;51.992;4.504;2022-09-25T04:20:00;1.67;;;1.56;;
71176;SDS011;58877;51.992;4.504;2022-09-25T04:22:25;1.85;;;1.69;;
71176;SDS011;58877;51.992;4.504;2022-09-25T04:24:51;1.68;;;1.53;;
71176;SDS011;58877;51.992;4.504;2022-09-25T04:27:18;1.49;;;1.36;;
71176;SDS011;58877;51.992;4.504;2022-09-25T04:29:46;1.62;;;1.50;;
71176;SDS011;58877;51.992;4.504;2022-09-25T04:32:13;1.80;;;1.67;;
71176;SDS011;58877;51.992;4.504;2022-09-25T04:34:59;1.50;;;1.42;;
71176;SDS011;58877;51.992;4.504;2022-09-25T04:37:26;1.89;;;1.78;;
71176;SDS011;58877;51.992;4.504;2022-09-25T04:39:53;1.52;;;1.44;;
71176;SDS011;58877;51.992;4.504;2022-09-25T04:42:19;2.04;;;1.93;;
71176;SDS011;58877;51.992;4.504;2022-09-25T04:44:51;1.92;;;1.82;;
71176;SDS011;58877;51.992;4.504;2022-09-25T04:47:19;1.74;;;1.68;;
71176;SDS011;58877;51.992;4.504;2022-09-25T04:49:45;1.79;;;1.75;;
71176;SDS011;58877;51.992;4.504;2022-09-25T04:52:14;1.96;;;1.85;;
71176;SDS011;58877;51.992;4.504;2022-09-25T04:54:41;2.01;;;1.88;;
71176;SDS011;58877;51.992;4.504;2022-09-25T04:57:17;1.95;;;1.82;;
71176;SDS011;58877;51.992;4.504;2022-09-25T04:59:44;1.79;;;1.70;;
71176;SDS011;58877;51.992;4.504;2022-09-25T05:02:12;2.02;;;1.93;;
71176;SDS011;58877;51.992;4.504;2022-09-25T05:04:38;2.24;;;2.10;;
71176;SDS011;58877;51.992;4.504;2022-09-25T05:07:03;1.96;;;1.88;;
71176;SDS011;58877;51.992;4.504;2022-09-25T05:09:29;1.66;;;1.60;;
71176;SDS011;58877;51.992;4.504;2022-09-25T05:11:56;1.94;;;1.86;;
71176;SDS011;58877;51.992;4.504;2022-09-25T05:14:22;1.95;;;1.83;;
71176;SDS011;58877;51.992;4.504;2022-09-25T05:16:48;2.13;;;1.96;;
71176;SDS011;58877;51.992;4.504;2022-09-25T05:19:14;1.70;;;1.58;;
71176;SDS011;58877;51.992;4.504;2022-09-25T05:21:46;1.69;;;1.57;;
71176;SDS011;58877;51.992;4.504;2022-09-25T05:24:11;1.80;;;1.67;;
71176;SDS011;58877;51.992;4.504;2022-09-25T05:26:37;1.59;;;1.49;;
71176;SDS011;58877;51.992;4.504;2022-09-25T05:29:03;1.62;;;1.53;;
71176;SDS011;58877;51.992;4.504;2022-09-25T05:31:31;1.35;;;1.28;;
71176;SDS011;58877;51.992;4.504;2022-09-25T05:34:00;1.40;;;1.35;;
71176;SDS011;58877;51.992;4.504;2022-09-25T05:36:26;1.39;;;1.35;;
71176;SDS011;58877;51.992;4.504;2022-09-25T05:38:52;1.51;;;1.44;;
71176;SDS011;58877;51.992;4.504;2022-09-25T05:41:18;1.41;;;1.35;;
71176;SDS011;58877;51.992;4.504;2022-09-25T05:43:44;1.30;;;1.26;;
71176;SDS011;58877;51.992;4.504;2022-09-25T05:46:14;1.53;;;1.49;;
71176;SDS011;58877;51.992;4.504;2022-09-25T05:48:42;1.61;;;1.56;;
71176;SDS011;58877;51.992;4.504;2022-09-25T05:51:08;1.23;;;1.19;;
71176;SDS011;58877;51.992;4.504;2022-09-25T05:53:35;1.43;;;1.39;;
71176;SDS011;58877;51.992;4.504;2022-09-25T05:56:02;1.28;;;1.25;;
71176;SDS011;58877;51.992;4.504;2022-09-25T05:58:29;1.45;;;1.42;;
71176;SDS011;58877;51.992;4.504;2022-09-25T06:01:01;1.55;;;1.52;;
71176;SDS011;58877;51.992;4.504;2022-09-25T06:03:28;1.67;;;1.62;;
71176;SDS011;58877;51.992;4.504;2022-09-25T06:05:55;1.71;;;1.65;;
71176;SDS011;58877;51.992;4.504;2022-09-25T06:08:23;1.89;;;1.83;;
71176;SDS011;58877;51.992;4.504;2022-09-25T06:10:53;1.84;;;1.78;;
71176;SDS011;58877;51.992;4.504;2022-09-25T06:13:20;1.61;;;1.57;;
71176;SDS011;58877;51.992;4.504;2022-09-25T06:15:46;1.56;;;1.54;;
71176;SDS011;58877;51.992;4.504;2022-09-25T06:18:16;1.86;;;1.83;;
71176;SDS011;58877;51.992;4.504;2022-09-25T06:20:57;1.50;;;1.47;;
71176;SDS011;58877;51.992;4.504;2022-09-25T06:23:29;1.46;;;1.42;;
71176;SDS011;58877;51.992;4.504;2022-09-25T06:26:02;1.35;;;1.31;;
71176;SDS011;58877;51.992;4.504;2022-09-25T06:28:30;1.28;;;1.22;;
71176;SDS011;58877;51.992;4.504;2022-09-25T06:31:00;1.18;;;1.09;;
71176;SDS011;58877;51.992;4.504;2022-09-25T06:33:27;1.38;;;1.27;;
71176;SDS011;58877;51.992;4.504;2022-09-25T06:35:52;1.54;;;1.41;;
71176;SDS011;58877;51.992;4.504;2022-09-25T06:38:18;1.61;;;1.47;;
71176;SDS011;58877;51.992;4.504;2022-09-25T06:40:44;1.74;;;1.57;;
71176;SDS011;58877;51.992;4.504;2022-09-25T06:43:10;1.74;;;1.56;;
71176;SDS011;58877;51.992;4.504;2022-09-25T06:45:37;1.83;;;1.62;;
71176;SDS011;58877;51.992;4.504;2022-09-25T06:50:46;1.46;;;1.29;;
71176;SDS011;58877;51.992;4.504;2022-09-25T06:53:18;1.57;;;1.39;;
71176;SDS011;58877;51.992;4.504;2022-09-25T06:55:45;1.59;;;1.38;;
71176;SDS011;58877;51.992;4.504;2022-09-25T06:58:16;1.77;;;1.51;;
71176;SDS011;58877;51.992;4.504;2022-09-25T07:00:45;1.54;;;1.33;;
71176;SDS011;58877;51.992;4.504;2022-09-25T07:03:12;1.89;;;1.59;;
71176;SDS011;58877;51.992;4.504;2022-09-25T07:05:58;1.50;;;1.29;;
71176;SDS011;58877;51.992;4.504;2022-09-25T07:08:24;1.59;;;1.35;;
71176;SDS011;58877;51.992;4.504;2022-09-25T07:10:50;1.80;;;1.52;;
71176;SDS011;58877;51.992;4.504;2022-09-25T07:13:18;1.84;;;1.58;;
71176;SDS011;58877;51.992;4.504;2022-09-25T07:15:52;1.75;;;1.54;;
71176;SDS011;58877;51.992;4.504;2022-09-25T07:18:19;1.46;;;1.32;;
71176;SDS011;58877;51.992;4.504;2022-09-25T07:20:46;1.67;;;1.52;;
71176;SDS011;58877;51.992;4.504;2022-09-25T07:23:13;1.62;;;1.45;;
71176;SDS011;58877;51.992;4.504;2022-09-25T07:25:41;1.48;;;1.32;;
71176;SDS011;58877;51.992;4.504;2022-09-25T07:28:07;1.41;;;1.25;;
71176;SDS011;58877;51.992;4.504;2022-09-25T07:30:34;1.57;;;1.38;;
71176;SDS011;58877;51.992;4.504;2022-09-25T07:33:00;1.93;;;1.67;;
71176;SDS011;58877;51.992;4.504;2022-09-25T07:35:26;1.84;;;1.57;;
71176;SDS011;58877;51.992;4.504;2022-09-25T07:37:56;1.58;;;1.35;;
71176;SDS011;58877;51.992;4.504;2022-09-25T07:40:21;1.48;;;1.26;;
71176;SDS011;58877;51.992;4.504;2022-09-25T07:42:47;1.80;;;1.55;;
71176;SDS011;58877;51.992;4.504;2022-09-25T07:45:13;1.59;;;1.34;;
71176;SDS011;58877;51.992;4.504;2022-09-25T07:47:38;1.56;;;1.30;;
71176;SDS011;58877;51.992;4.504;2022-09-25T07:50:04;2.08;;;1.74;;
71176;SDS011;58877;51.992;4.504;2022-09-25T07:52:30;1.71;;;1.46;;
71176;SDS011;58877;51.992;4.504;2022-09-25T07:54:55;1.93;;;1.68;;
71176;SDS011;58877;51.992;4.504;2022-09-25T07:57:22;1.78;;;1.54;;
71176;SDS011;58877;51.992;4.504;2022-09-25T07:59:48;1.51;;;1.32;;
71176;SDS011;58877;51.992;4.504;2022-09-25T08:02:13;1.76;;;1.51;;
71176;SDS011;58877;51.992;4.504;2022-09-25T08:04:39;1.69;;;1.43;;
71176;SDS011;58877;51.992;4.504;2022-09-25T08:07:04;1.73;;;1.46;;
71176;SDS011;58877;51.992;4.504;2022-09-25T08:09:30;1.86;;;1.53;;
71176;SDS011;58877;51.992;4.504;2022-09-25T08:11:56;1.80;;;1.45;;
71176;SDS011;58877;51.992;4.504;2022-09-25T08:14:21;1.67;;;1.33;;
71176;SDS011;58877;51.992;4.504;2022-09-25T08:16:47;1.41;;;1.11;;
71176;SDS011;58877;51.992;4.504;2022-09-25T08:19:14;1.66;;;1.28;;
71176;SDS011;58877;51.992;4.504;2022-09-25T08:21:42;1.86;;;1.42;;
71176;SDS011;58877;51.992;4.504;2022-09-25T08:24:08;1.75;;;1.32;;
71176;SDS011;58877;51.992;4.504;2022-09-25T08:26:35;2.16;;;1.64;;
71176;SDS011;58877;51.992;4.504;2022-09-25T08:29:02;1.86;;;1.40;;
71176;SDS011;58877;51.992;4.504;2022-09-25T08:31:28;2.90;;;2.13;;
71176;SDS011;58877;51.992;4.504;2022-09-25T08:33:54;2.06;;;1.52;;
71176;SDS011;58877;51.992;4.504;2022-09-25T08:36:20;1.59;;;1.17;;
71176;SDS011;58877;51.992;4.504;2022-09-25T08:38:46;1.97;;;1.46;;
71176;SDS011;58877;51.992;4.504;2022-09-25T08:41:21;2.11;;;1.54;;
71176;SDS011;58877;51.992;4.504;2022-09-25T08:44:03;2.03;;;1.46;;
71176;SDS011;58877;51.992;4.504;2022-09-25T08:46:50;1.63;;;1.18;;
71176;SDS011;58877;51.992;4.504;2022-09-25T08:49:42;1.58;;;1.16;;
71176;SDS011;58877;51.992;4.504;2022-09-25T08:52:26;2.07;;;1.50;;
71176;SDS011;58877;51.992;4.504;2022-09-25T08:54:55;1.90;;;1.35;;
71176;SDS011;58877;51.992;4.504;2022-09-25T08:57:36;1.87;;;1.31;;
71176;SDS011;58877;51.992;4.504;2022-09-25T09:02:44;1.70;;;1.22;;
71176;SDS011;58877;51.992;4.504;2022-09-25T09:05:28;2.38;;;1.71;;
71176;SDS011;58877;51.992;4.504;2022-09-25T09:07:58;1.88;;;1.32;;
71176;SDS011;58877;51.992;4.504;2022-09-25T09:10:34;2.06;;;1.44;;
71176;SDS011;58877;51.992;4.504;2022-09-25T09:15:54;2.18;;;1.51;;
71176;SDS011;58877;51.992;4.504;2022-09-25T09:18:27;2.20;;;1.55;;
71176;SDS011;58877;51.992;4.504;2022-09-25T09:20:56;2.39;;;1.66;;
71176;SDS011;58877;51.992;4.504;2022-09-25T09:23:31;2.16;;;1.48;;
71176;SDS011;58877;51.992;4.504;2022-09-25T09:26:01;2.37;;;1.64;;
71176;SDS011;58877;51.992;4.504;2022-09-25T09:28:53;2.38;;;1.65;;
71176;SDS011;58877;51.992;4.504;2022-09-25T09:36:47;1.90;;;1.38;;
71176;SDS011;58877;51.992;4.504;2022-09-25T09:39:33;2.09;;;1.54;;
71176;SDS011;58877;51.992;4.504;2022-09-25T09:42:15;1.80;;;1.34;;
71176;SDS011;58877;51.992;4.504;2022-09-25T09:47:21;1.59;;;1.20;;
71176;SDS011;58877;51.992;4.504;2022-09-25T09:50:20;1.34;;;0.99;;
71176;SDS011;58877;51.992;4.504;2022-09-25T09:56:09;1.97;;;1.45;;
71176;SDS011;58877;51.992;4.504;2022-09-25T09:58:53;1.71;;;1.28;;
71176;SDS011;58877;51.992;4.504;2022-09-25T10:01:23;1.71;;;1.30;;
71176;SDS011;58877;51.992;4.504;2022-09-25T10:06:31;1.22;;;0.92;;
71176;SDS011;58877;51.992;4.504;2022-09-25T10:09:02;1.21;;;0.92;;
71176;SDS011;58877;51.992;4.504;2022-09-25T10:11:29;1.18;;;0.92;;
71176;SDS011;58877;51.992;4.504;2022-09-25T10:13:58;1.27;;;0.98;;
71176;SDS011;58877;51.992;4.504;2022-09-25T10:16:28;1.09;;;0.85;;
71176;SDS011;58877;51.992;4.504;2022-09-25T10:18:58;0.82;;;0.63;;
71176;SDS011;58877;51.992;4.504;2022-09-25T10:21:38;1.14;;;0.88;;
71176;SDS011;58877;51.992;4.504;2022-09-25T10:24:09;1.06;;;0.82;;
71176;SDS011;58877;51.992;4.504;2022-09-25T10:27:49;0.90;;;0.70;;
71176;SDS011;58877;51.992;4.504;2022-09-25T10:30:21;1.09;;;0.86;;
71176;SDS011;58877;51.992;4.504;2022-09-25T10:35:17;1.19;;;0.94;;
71176;SDS011;58877;51.992;4.504;2022-09-25T10:37:50;0.97;;;0.77;;
71176;SDS011;58877;51.992;4.504;2022-09-25T10:40:31;1.09;;;0.86;;
71176;SDS011;58877;51.992;4.504;2022-09-25T10:43:13;1.44;;;1.13;;
71176;SDS011;58877;51.992;4.504;2022-09-25T10:45:48;1.14;;;0.90;;
71176;SDS011;58877;51.992;4.504;2022-09-25T10:48:35;1.57;;;1.22;;
71176;SDS011;58877;51.992;4.504;2022-09-25T10:51:20;1.19;;;0.91;;
71176;SDS011;58877;51.992;4.504;2022-09-25T10:53:47;1.22;;;0.92;;
71176;SDS011;58877;51.992;4.504;2022-09-25T10:56:22;1.18;;;0.90;;
71176;SDS011;58877;51.992;4.504;2022-09-25T10:58:58;1.57;;;1.20;;
71176;SDS011;58877;51.992;4.504;2022-09-25T11:01:32;1.51;;;1.13;;
71176;SDS011;58877;51.992;4.504;2022-09-25T11:04:23;1.03;;;0.77;;
71176;SDS011;58877;51.992;4.504;2022-09-25T11:06:56;1.16;;;0.85;;
71176;SDS011;58877;51.992;4.504;2022-09-25T11:09:28;1.33;;;0.97;;
71176;SDS011;58877;51.992;4.504;2022-09-25T11:15:06;0.86;;;0.63;;
71176;SDS011;58877;51.992;4.504;2022-09-25T11:17:39;1.30;;;0.94;;
71176;SDS011;58877;51.992;4.504;2022-09-25T11:20:21;1.47;;;1.04;;
71176;SDS011;58877;51.992;4.504;2022-09-25T11:23:03;1.13;;;0.79;;
71176;SDS011;58877;51.992;4.504;2022-09-25T11:26:19;1.92;;;1.37;;
71176;SDS011;58877;51.992;4.504;2022-09-25T11:28:48;1.73;;;1.25;;
71176;SDS011;58877;51.992;4.504;2022-09-25T11:31:41;1.20;;;0.90;;
71176;SDS011;58877;51.992;4.504;2022-09-25T11:34:22;1.35;;;1.03;;
71176;SDS011;58877;51.992;4.504;2022-09-25T11:43:14;0.94;;;0.73;;
71176;SDS011;58877;51.992;4.504;2022-09-25T11:45:52;0.82;;;0.64;;
71176;SDS011;58877;51.992;4.504;2022-09-25T11:51:28;1.41;;;1.07;;
71176;SDS011;58877;51.992;4.504;2022-09-25T11:56:47;1.29;;;0.96;;
71176;SDS011;58877;51.992;4.504;2022-09-25T11:59:45;1.35;;;1.00;;
71176;SDS011;58877;51.992;4.504;2022-09-25T12:07:59;0.80;;;0.60;;
71176;SDS011;58877;51.992;4.504;2022-09-25T12:13:30;0.87;;;0.64;;
71176;SDS011;58877;51.992;4.504;2022-09-25T12:19:15;0.58;;;0.44;;
71176;SDS011;58877;51.992;4.504;2022-09-25T12:22:00;0.73;;;0.54;;
71176;SDS011;58877;51.992;4.504;2022-09-25T12:27:29;0.73;;;0.53;;
71176;SDS011;58877;51.992;4.504;2022-09-25T12:46:48;0.76;;;0.57;;
71176;SDS011;58877;51.992;4.504;2022-09-25T12:52:24;0.80;;;0.62;;
71176;SDS011;58877;51.992;4.504;2022-09-25T12:55:06;0.89;;;0.69;;
71176;SDS011;58877;51.992;4.504;2022-09-25T12:57:51;0.90;;;0.70;;
71176;SDS011;58877;51.992;4.504;2022-09-25T13:00:28;0.81;;;0.63;;
71176;SDS011;58877;51.992;4.504;2022-09-25T13:05:52;0.78;;;0.61;;
71176;SDS011;58877;51.992;4.504;2022-09-25T13:08:32;1.06;;;0.82;;
71176;SDS011;58877;51.992;4.504;2022-09-25T13:11:07;0.64;;;0.50;;
71176;SDS011;58877;51.992;4.504;2022-09-25T13:13:41;0.85;;;0.66;;
71176;SDS011;58877;51.992;4.504;2022-09-25T13:16:12;0.63;;;0.48;;
71176;SDS011;58877;51.992;4.504;2022-09-25T13:18:45;0.93;;;0.71;;
71176;SDS011;58877;51.992;4.504;2022-09-25T13:21:33;0.86;;;0.65;;
71176;SDS011;58877;51.992;4.504;2022-09-25T13:24:03;0.78;;;0.59;;
71176;SDS011;58877;51.992;4.504;2022-09-25T13:26:55;0.63;;;0.47;;
71176;SDS011;58877;51.992;4.504;2022-09-25T13:29:34;1.17;;;0.90;;
71176;SDS011;58877;51.992;4.504;2022-09-25T13:32:19;1.11;;;0.86;;
71176;SDS011;58877;51.992;4.504;2022-09-25T13:34:53;0.67;;;0.52;;
71176;SDS011;58877;51.992;4.504;2022-09-25T13:37:23;0.66;;;0.52;;
71176;SDS011;58877;51.992;4.504;2022-09-25T13:39:56;0.66;;;0.52;;
71176;SDS011;58877;51.992;4.504;2022-09-25T13:42:44;0.65;;;0.52;;
71176;SDS011;58877;51.992;4.504;2022-09-25T13:48:03;0.80;;;0.63;;
71176;SDS011;58877;51.992;4.504;2022-09-25T13:50:51;0.70;;;0.55;;
71176;SDS011;58877;51.992;4.504;2022-09-25T13:56:15;0.56;;;0.44;;
71176;SDS011;58877;51.992;4.504;2022-09-25T13:59:00;0.41;;;0.32;;
71176;SDS011;58877;51.992;4.504;2022-09-25T14:01:43;0.53;;;0.42;;
71176;SDS011;58877;51.992;4.504;2022-09-25T14:04:18;0.60;;;0.49;;
71176;SDS011;58877;51.992;4.504;2022-09-25T14:09:43;0.74;;;0.60;;
71176;SDS011;58877;51.992;4.504;2022-09-25T14:12:13;0.87;;;0.69;;
71176;SDS011;58877;51.992;4.504;2022-09-25T14:17:23;0.69;;;0.54;;
71176;SDS011;58877;51.992;4.504;2022-09-25T14:19:52;0.71;;;0.55;;
71176;SDS011;58877;51.992;4.504;2022-09-25T14:27:58;0.87;;;0.65;;
71176;SDS011;58877;51.992;4.504;2022-09-25T14:30:26;0.75;;;0.56;;
71176;SDS011;58877;51.992;4.504;2022-09-25T14:36:09;0.86;;;0.64;;
71176;SDS011;58877;51.992;4.504;2022-09-25T14:47:09;0.78;;;0.59;;
71176;SDS011;58877;51.992;4.504;2022-09-25T14:49:39;1.08;;;0.82;;
71176;SDS011;58877;51.992;4.504;2022-09-25T14:52:12;0.97;;;0.73;;
71176;SDS011;58877;51.992;4.504;2022-09-25T14:54:44;0.96;;;0.72;;
71176;SDS011;58877;51.992;4.504;2022-09-25T14:57:16;0.99;;;0.75;;
71176;SDS011;58877;51.992;4.504;2022-09-25T15:00:12;0.89;;;0.68;;
71176;SDS011;58877;51.992;4.504;2022-09-25T15:02:43;1.06;;;0.81;;
71176;SDS011;58877;51.992;4.504;2022-09-25T15:07:45;0.73;;;0.58;;
71176;SDS011;58877;51.992;4.504;2022-09-25T15:13:05;0.92;;;0.72;;
71176;SDS011;58877;51.992;4.504;2022-09-25T15:15:43;1.13;;;0.88;;
71176;SDS011;58877;51.992;4.504;2022-09-25T15:18:37;0.82;;;0.66;;
71176;SDS011;58877;51.992;4.504;2022-09-25T15:21:19;0.92;;;0.74;;
71176;SDS011;58877;51.992;4.504;2022-09-25T15:23:56;0.86;;;0.70;;
71176;SDS011;58877;51.992;4.504;2022-09-25T15:26:29;0.73;;;0.60;;
71176;SDS011;58877;51.992;4.504;2022-09-25T15:28:58;0.90;;;0.76;;
71176;SDS011;58877;51.992;4.504;2022-09-25T15:31:24;0.71;;;0.60;;
71176;SDS011;58877;51.992;4.504;2022-09-25T15:34:00;0.80;;;0.69;;
71176;SDS011;58877;51.992;4.504;2022-09-25T15:36:37;1.13;;;0.96;;
71176;SDS011;58877;51.992;4.504;2022-09-25T15:39:12;0.86;;;0.72;;
71176;SDS011;58877;51.992;4.504;2022-09-25T15:41:48;0.87;;;0.72;;
71176;SDS011;58877;51.992;4.504;2022-09-25T15:44:19;1.51;;;1.27;;
71176;SDS011;58877;51.992;4.504;2022-09-25T15:46:51;1.03;;;0.88;;
71176;SDS011;58877;51.992;4.504;2022-09-25T15:49:26;0.78;;;0.67;;
71176;SDS011;58877;51.992;4.504;2022-09-25T15:52:03;1.00;;;0.86;;
71176;SDS011;58877;51.992;4.504;2022-09-25T15:54:52;0.69;;;0.59;;
71176;SDS011;58877;51.992;4.504;2022-09-25T15:57:28;0.81;;;0.71;;
71176;SDS011;58877;51.992;4.504;2022-09-25T16:00:08;0.70;;;0.62;;
71176;SDS011;58877;51.992;4.504;2022-09-25T16:03:23;0.82;;;0.73;;
71176;SDS011;58877;51.992;4.504;2022-09-25T16:06:14;0.88;;;0.78;;
71176;SDS011;58877;51.992;4.504;2022-09-25T16:08:41;0.72;;;0.64;;
71176;SDS011;58877;51.992;4.504;2022-09-25T16:14:19;0.94;;;0.85;;
71176;SDS011;58877;51.992;4.504;2022-09-25T16:16:54;0.71;;;0.64;;
71176;SDS011;58877;51.992;4.504;2022-09-25T16:26:18;0.62;;;0.56;;
71176;SDS011;58877;51.992;4.504;2022-09-25T16:28:53;0.84;;;0.75;;
71176;SDS011;58877;51.992;4.504;2022-09-25T16:31:23;1.05;;;0.94;;
71176;SDS011;58877;51.992;4.504;2022-09-25T16:34:01;0.79;;;0.71;;
71176;SDS011;58877;51.992;4.504;2022-09-25T16:36:43;0.70;;;0.64;;
71176;SDS011;58877;51.992;4.504;2022-09-25T16:39:19;0.88;;;0.81;;
71176;SDS011;58877;51.992;4.504;2022-09-25T16:41:48;0.95;;;0.88;;
71176;SDS011;58877;51.992;4.504;2022-09-25T16:49:22;1.04;;;0.96;;
71176;SDS011;58877;51.992;4.504;2022-09-25T16:51:51;0.89;;;0.82;;
71176;SDS011;58877;51.992;4.504;2022-09-25T16:54:20;0.87;;;0.80;;
71176;SDS011;58877;51.992;4.504;2022-09-25T16:56:54;0.98;;;0.90;;
71176;SDS011;58877;51.992;4.504;2022-09-25T16:59:24;0.74;;;0.68;;
71176;SDS011;58877;51.992;4.504;2022-09-25T17:01:53;1.08;;;1.01;;
71176;SDS011;58877;51.992;4.504;2022-09-25T17:04:24;0.89;;;0.84;;
71176;SDS011;58877;51.992;4.504;2022-09-25T17:06:55;0.93;;;0.88;;
71176;SDS011;58877;51.992;4.504;2022-09-25T17:09:26;0.77;;;0.73;;
71176;SDS011;58877;51.992;4.504;2022-09-25T17:11:59;0.72;;;0.68;;
71176;SDS011;58877;51.992;4.504;2022-09-25T17:14:31;0.95;;;0.90;;
71176;SDS011;58877;51.992;4.504;2022-09-25T17:16:59;1.00;;;0.93;;
71176;SDS011;58877;51.992;4.504;2022-09-25T17:19:25;1.19;;;1.10;;
71176;SDS011;58877;51.992;4.504;2022-09-25T17:21:51;0.93;;;0.87;;
71176;SDS011;58877;51.992;4.504;2022-09-25T17:24:24;1.05;;;0.99;;
71176;SDS011;58877;51.992;4.504;2022-09-25T17:26:51;0.98;;;0.94;;
71176;SDS011;58877;51.992;4.504;2022-09-25T17:29:17;1.01;;;0.97;;
71176;SDS011;58877;51.992;4.504;2022-09-25T17:31:44;1.15;;;1.09;;
71176;SDS011;58877;51.992;4.504;2022-09-25T17:34:17;0.98;;;0.92;;
71176;SDS011;58877;51.992;4.504;2022-09-25T17:36:48;1.12;;;1.05;;
71176;SDS011;58877;51.992;4.504;2022-09-25T17:39:15;1.27;;;1.16;;
71176;SDS011;58877;51.992;4.504;2022-09-25T17:41:41;1.17;;;1.06;;
71176;SDS011;58877;51.992;4.504;2022-09-25T17:44:11;1.26;;;1.15;;
71176;SDS011;58877;51.992;4.504;2022-09-25T17:46:45;0.99;;;0.88;;
71176;SDS011;58877;51.992;4.504;2022-09-25T17:49:11;1.17;;;1.06;;